首页
METAR-TAF:

METAR-TAF

机场 :

印威內斯, 苏格兰

纬度: 57-32N, 经度: 004-03W, 海拔: 9米

当前天气观测

该预报发布于41分钟前的19:20 UTC
风速12节,风向西转西南
温度 8°C
湿度 76%
气压 991 hPa
能见度10公里或以上
少量云层高于3600英尺
散云层高于4400英尺

METAR: EGPE 211920Z 24012KT 9999 FEW036 SCT044 08/04 Q0991

时间: 20:01 (20:01 UTC)

预报

该预报发布于3小时和2分钟前的16:59 UTC
预报有效从21日的 18点(UTC)到 22日的 03点(UTC)
风速16节,风向西南
能见度10公里或以上
少量云层高于1200英尺
散云层高于2500英尺
短暂存在
从 21日的 18点(UTC)到 22日的 03点(UTC)
风速20节,风向西南,有时为32节阵风
几率 30% :
短暂存在
从 21日的 18点(UTC)到 21日的 24点(UTC)
能見度: 7000
阵雨
几率 30% :
短暂存在
从 22日的 00点(UTC)到 22日的 03点(UTC)
能見度: 4000
多云层高于1200英尺, 积雨云.
阵雨, 雪

TAF: EGPE 211659Z 2118/2203 22016KT 9999 FEW012 SCT025 TEMPO 2118/2203 22020G32KT PROB30 TEMPO 2118/2124 7000 SHRA PROB30 TEMPO 2200/2203 4000 SHRASN BKN012CB

超过4000个机场的气象观测和天气预报(METAR&TAF报告)。

可查询的气象台以黄色和红色小点在地图上表示。

将鼠标移到小点上方,可查看气象台名称。

然后点击查看天气观测和预报。

如需切换地图:点击带黑十字的绿色按钮放大地图;点击带横线的绿色按钮缩小地图;或者点击绿色箭头查看邻近地区的地图。


METAR-TAF: